createdAt,value
2018-08-20T00:00:30.254Z,60.00
2018-08-20T00:03:41.774Z,60.00
2018-08-20T00:06:57.405Z,59.90
2018-08-20T00:10:00.618Z,60.00
2018-08-20T00:13:03.758Z,59.80
2018-08-20T00:16:06.914Z,60.10
2018-08-20T00:19:13.449Z,59.40
2018-08-20T00:22:19.383Z,59.10
2018-08-20T00:25:22.664Z,59.90
2018-08-20T00:28:26.577Z,59.60
2018-08-20T00:31:29.669Z,59.40
2018-08-20T00:34:32.805Z,59.70
2018-08-20T00:37:35.902Z,59.80
2018-08-20T00:40:39.061Z,59.30
2018-08-20T00:43:42.163Z,59.30
2018-08-20T00:46:46.003Z,59.60
2018-08-20T00:49:49.114Z,59.50
2018-08-20T00:52:52.302Z,59.60
2018-08-20T00:55:55.437Z,59.40
2018-08-20T00:58:58.605Z,59.30
2018-08-20T01:02:01.774Z,59.70
2018-08-20T01:05:05.075Z,60.10
2018-08-20T01:08:08.191Z,59.90
2018-08-20T01:11:11.388Z,60.20
2018-08-20T01:14:14.552Z,60.20
2018-08-20T01:17:17.717Z,60.10
2018-08-20T01:20:20.856Z,59.90
2018-08-20T01:23:24.054Z,60.00
2018-08-20T01:26:27.191Z,60.10
2018-08-20T01:29:30.316Z,60.30
2018-08-20T01:32:33.393Z,59.80
2018-08-20T01:35:36.541Z,59.60
2018-08-20T01:38:42.495Z,60.10
2018-08-20T01:41:45.685Z,60.20
2018-08-20T01:44:48.801Z,60.20
2018-08-20T01:47:51.907Z,60.50
2018-08-20T01:50:55.018Z,60.60
2018-08-20T01:53:58.142Z,60.70
2018-08-20T01:57:01.720Z,61.10
2018-08-20T02:05:39.864Z,61.20
2018-08-20T02:08:43.025Z,61.20
2018-08-20T02:11:46.181Z,61.90
2018-08-20T02:14:49.397Z,61.90
2018-08-20T02:17:52.679Z,62.50
2018-08-20T02:20:55.831Z,61.90
2018-08-20T02:23:58.890Z,62.30
2018-08-20T02:27:02.104Z,61.90
2018-08-20T02:30:05.849Z,62.10
2018-08-20T02:33:09.368Z,61.90
2018-08-20T02:36:12.599Z,61.70
2018-08-20T02:39:15.873Z,61.80
2018-08-20T02:42:18.966Z,62.50
2018-08-20T02:45:22.075Z,62.30
2018-08-20T02:48:25.209Z,62.30
2018-08-20T02:51:28.366Z,62.30
2018-08-20T02:54:31.513Z,61.90
2018-08-20T02:57:34.677Z,62.10
2018-08-20T03:00:37.863Z,62.20
2018-08-20T03:03:41.106Z,62.40
2018-08-20T03:06:44.263Z,62.70
2018-08-20T03:09:47.330Z,63.10
2018-08-20T03:12:50.458Z,62.30
2018-08-20T03:15:53.744Z,62.60
2018-08-20T03:18:56.884Z,62.70
2018-08-20T03:22:00.069Z,62.60
2018-08-20T03:25:03.889Z,62.80
2018-08-20T03:28:07.083Z,63.20
2018-08-20T03:31:10.407Z,63.70
2018-08-20T03:34:13.693Z,64.00
2018-08-20T03:37:16.841Z,63.80
2018-08-20T03:40:19.965Z,63.90
2018-08-20T03:43:23.193Z,64.00
2018-08-20T03:46:26.425Z,63.60
2018-08-20T03:49:29.530Z,63.60
2018-08-20T03:52:32.735Z,63.10
2018-08-20T03:55:35.826Z,63.20
2018-08-20T03:58:39.004Z,62.80
2018-08-20T04:01:42.204Z,62.70
2018-08-20T04:04:49.025Z,63.00
2018-08-20T04:07:59.194Z,62.90
2018-08-20T04:11:02.376Z,62.60
2018-08-20T04:14:06.191Z,62.30
2018-08-20T04:17:09.759Z,62.40
2018-08-20T04:20:12.886Z,62.60
2018-08-20T04:23:17.372Z,62.70
2018-08-20T04:26:20.513Z,62.40
2018-08-20T04:29:23.667Z,62.80
2018-08-20T04:32:26.869Z,62.70
2018-08-20T04:35:30.207Z,62.80
2018-08-20T04:38:33.327Z,62.70
2018-08-20T04:41:36.735Z,63.40
2018-08-20T04:44:40.461Z,63.60
2018-08-20T04:47:43.604Z,62.80
2018-08-20T04:50:47.092Z,63.10
2018-08-20T04:53:50.127Z,62.80
2018-08-20T04:56:53.247Z,62.90
2018-08-20T04:59:56.532Z,63.00
2018-08-20T05:02:59.704Z,63.00
2018-08-20T05:06:03.784Z,62.70
2018-08-20T05:09:07.436Z,62.60
2018-08-20T05:12:10.961Z,63.40
2018-08-20T05:15:14.317Z,63.50
2018-08-20T05:18:17.723Z,63.80
2018-08-20T05:21:21.237Z,63.70
2018-08-20T05:24:24.386Z,63.00
2018-08-20T05:27:27.563Z,63.90
2018-08-20T05:30:30.857Z,63.00
2018-08-20T05:33:34.372Z,63.60
2018-08-20T05:36:38.141Z,63.20
2018-08-20T05:39:41.299Z,63.40
2018-08-20T05:42:44.582Z,64.00
2018-08-20T05:45:47.724Z,64.60
2018-08-20T05:48:50.847Z,64.40
2018-08-20T05:51:54.741Z,64.00
2018-08-20T05:54:57.840Z,63.90
2018-08-20T05:58:00.943Z,63.80
2018-08-20T06:01:04.546Z,64.00
2018-08-20T06:04:07.813Z,64.00
2018-08-20T06:07:10.970Z,63.70
2018-08-20T06:10:14.557Z,64.30
2018-08-20T06:13:17.768Z,63.90
2018-08-20T06:16:20.965Z,63.80
2018-08-20T06:19:24.386Z,64.30
2018-08-20T06:22:27.665Z,64.70
2018-08-20T06:25:30.861Z,65.00
2018-08-20T06:28:34.296Z,64.80
2018-08-20T06:31:37.566Z,65.50
2018-08-20T06:34:40.709Z,65.50
2018-08-20T06:37:44.562Z,66.50
2018-08-20T06:40:47.649Z,66.90
2018-08-20T06:43:51.022Z,67.90
2018-08-20T06:46:54.414Z,67.90
2018-08-20T06:49:57.714Z,68.00
2018-08-20T06:53:00.893Z,67.80
2018-08-20T06:56:04.519Z,68.10
2018-08-20T06:59:07.682Z,68.40
2018-08-20T07:02:10.729Z,68.80
2018-08-20T07:05:14.238Z,68.80
2018-08-20T07:08:17.323Z,69.10
2018-08-20T07:11:20.566Z,69.40
2018-08-20T07:14:23.867Z,70.50
2018-08-20T07:17:26.946Z,69.70
2018-08-20T07:20:30.051Z,69.70
2018-08-20T07:23:34.174Z,69.60
2018-08-20T07:26:37.783Z,70.40
2018-08-20T07:29:42.743Z,70.40
2018-08-20T07:32:45.971Z,70.00
2018-08-20T07:35:49.301Z,70.70
2018-08-20T07:38:52.555Z,70.50
2018-08-20T07:41:55.888Z,71.10
2018-08-20T07:44:59.119Z,70.80
2018-08-20T07:48:02.406Z,70.30
2018-08-20T07:51:05.978Z,71.30
2018-08-20T07:54:09.138Z,71.20
2018-08-20T07:57:12.441Z,71.10
2018-08-20T08:00:15.785Z,71.20
2018-08-20T08:03:24.265Z,71.30
2018-08-20T08:06:27.375Z,71.20
2018-08-20T08:09:30.775Z,71.80
2018-08-20T08:12:34.098Z,70.50
2018-08-20T08:15:37.366Z,71.10
2018-08-20T08:18:40.648Z,71.30
2018-08-20T08:21:43.872Z,71.60
2018-08-20T08:24:47.062Z,71.60
2018-08-20T08:27:50.278Z,71.90
2018-08-20T08:30:53.413Z,72.20
2018-08-20T08:33:56.677Z,72.90
2018-08-20T08:36:59.835Z,72.50
2018-08-20T08:40:03.311Z,72.60
2018-08-20T08:43:06.658Z,72.50
2018-08-20T08:46:09.918Z,72.10
2018-08-20T08:49:13.164Z,72.60
2018-08-20T08:52:16.338Z,72.70
2018-08-20T08:55:19.580Z,73.00
2018-08-20T08:58:29.342Z,72.90
2018-08-20T09:01:32.511Z,72.70
2018-08-20T09:04:35.672Z,73.10
2018-08-20T09:07:39.509Z,72.80
2018-08-20T09:10:42.583Z,73.20
2018-08-20T09:13:45.906Z,73.10
2018-08-20T09:16:49.442Z,72.80
2018-08-20T09:19:52.605Z,73.00
2018-08-20T09:22:55.863Z,72.90
2018-08-20T09:25:59.065Z,72.60
2018-08-20T09:29:02.258Z,72.60
2018-08-20T09:32:05.445Z,72.40
2018-08-20T09:35:09.249Z,72.90
2018-08-20T09:38:12.475Z,73.00
2018-08-20T09:41:15.666Z,73.00
2018-08-20T09:44:18.897Z,72.90
2018-08-20T09:47:22.097Z,72.50
2018-08-20T09:50:25.268Z,72.50
2018-08-20T09:53:28.576Z,72.40
2018-08-20T09:56:31.741Z,72.70
2018-08-20T09:59:34.937Z,73.20
2018-08-20T10:02:38.192Z,72.50
2018-08-20T10:05:41.590Z,73.10
2018-08-20T10:08:44.857Z,73.40
2018-08-20T10:11:48.130Z,73.40
2018-08-20T10:14:51.266Z,73.00
2018-08-20T10:17:54.727Z,73.50
2018-08-20T10:20:57.898Z,72.20
2018-08-20T10:24:01.141Z,72.80
2018-08-20T10:27:04.379Z,73.00
2018-08-20T10:30:09.693Z,73.30
2018-08-20T10:33:12.881Z,73.10
2018-08-20T10:36:16.086Z,72.50
2018-08-20T10:39:19.368Z,72.70
2018-08-20T10:42:22.533Z,71.60
2018-08-20T10:45:31.354Z,72.40
2018-08-20T10:48:34.513Z,71.70
2018-08-20T10:51:37.788Z,72.10
2018-08-20T10:54:41.076Z,71.70
2018-08-20T10:57:44.832Z,72.10
2018-08-20T11:00:48.040Z,72.40
2018-08-20T11:03:57.300Z,72.00
2018-08-20T11:07:00.573Z,70.80
2018-08-20T11:10:03.902Z,70.80
2018-08-20T11:13:07.142Z,70.80
2018-08-20T11:16:10.744Z,70.80
2018-08-20T11:19:13.976Z,70.00
2018-08-20T11:22:17.297Z,69.60
2018-08-20T11:25:20.461Z,68.50
2018-08-20T11:28:23.624Z,70.30
2018-08-20T11:31:26.924Z,68.90
2018-08-20T11:34:30.068Z,69.70
2018-08-20T11:37:33.258Z,67.90
2018-08-20T11:40:36.369Z,68.70
2018-08-20T11:43:39.547Z,68.00
2018-08-20T11:46:42.729Z,66.90
2018-08-20T11:49:45.831Z,67.50
2018-08-20T11:52:49.048Z,67.00
2018-08-20T11:55:52.189Z,67.70
2018-08-20T11:58:55.394Z,67.70
2018-08-20T12:01:58.700Z,67.40
2018-08-20T12:05:01.902Z,67.60
2018-08-20T12:08:05.280Z,67.40
2018-08-20T12:11:08.390Z,67.50
2018-08-20T12:14:11.511Z,67.20
2018-08-20T12:17:14.878Z,66.00
2018-08-20T12:20:17.995Z,66.60
2018-08-20T12:23:21.200Z,67.10
2018-08-20T12:26:24.345Z,66.70
2018-08-20T12:29:27.769Z,65.50
2018-08-20T12:32:30.890Z,65.80
2018-08-20T12:35:34.122Z,65.50
2018-08-20T12:38:37.353Z,65.30
2018-08-20T12:41:40.995Z,65.80
2018-08-20T12:44:44.226Z,66.00
2018-08-20T12:47:47.471Z,64.70
2018-08-20T12:50:57.223Z,64.70
2018-08-20T12:54:00.450Z,65.60
2018-08-20T12:57:03.730Z,65.00
2018-08-20T13:00:07.341Z,64.60
2018-08-20T13:03:10.506Z,64.90
2018-08-20T13:06:13.741Z,67.00
2018-08-20T13:09:16.977Z,67.50
2018-08-20T13:12:20.199Z,66.10
2018-08-20T13:15:23.332Z,66.30
2018-08-20T13:18:26.509Z,65.20
2018-08-20T13:21:29.720Z,66.60
2018-08-20T13:24:33.190Z,64.20
2018-08-20T13:27:36.394Z,64.00
2018-08-20T13:30:39.577Z,64.30
2018-08-20T13:33:43.048Z,65.20
2018-08-20T13:36:46.289Z,63.00
2018-08-20T13:39:49.493Z,63.50
2018-08-20T13:42:52.729Z,61.60
2018-08-20T13:45:56.012Z,62.40
2018-08-20T13:48:59.194Z,62.10
2018-08-20T13:52:02.641Z,62.50
2018-08-20T13:55:05.870Z,61.90
2018-08-20T13:58:09.105Z,62.90
2018-08-20T14:01:12.344Z,62.40
2018-08-20T14:04:15.603Z,62.40
2018-08-20T14:07:18.774Z,63.50
2018-08-20T14:10:22.047Z,63.90
2018-08-20T14:13:25.227Z,64.80
2018-08-20T14:16:28.467Z,64.90
2018-08-20T14:19:31.630Z,64.70
2018-08-20T14:22:34.809Z,65.20
2018-08-20T14:25:38.013Z,66.10
2018-08-20T14:28:41.242Z,65.30
2018-08-20T14:31:44.396Z,65.50
2018-08-20T14:34:47.607Z,65.30
2018-08-20T14:37:50.781Z,65.20
2018-08-20T14:40:54.000Z,65.10
2018-08-20T14:43:57.263Z,65.00
2018-08-20T14:47:00.453Z,65.30
2018-08-20T14:50:04.955Z,65.10
2018-08-20T14:53:08.322Z,66.10
2018-08-20T14:56:12.469Z,66.00
2018-08-20T14:59:15.705Z,65.50
2018-08-20T15:02:18.881Z,65.40
2018-08-20T15:05:22.138Z,64.60
2018-08-20T15:08:25.982Z,65.50
2018-08-20T15:11:29.208Z,66.00
2018-08-20T15:14:32.394Z,66.40
2018-08-20T15:17:35.996Z,65.70
2018-08-20T15:20:39.293Z,65.80
2018-08-20T15:23:42.476Z,65.30
2018-08-20T15:26:46.623Z,64.60
2018-08-20T15:29:49.762Z,64.50
2018-08-20T15:32:53.021Z,64.00
2018-08-20T15:35:56.423Z,64.60
2018-08-20T15:38:59.892Z,63.50
2018-08-20T15:42:03.124Z,63.40
2018-08-20T15:45:06.376Z,63.40
2018-08-20T15:48:09.707Z,63.70
2018-08-20T15:51:12.911Z,63.90
2018-08-20T15:54:16.046Z,63.60
2018-08-20T15:57:19.306Z,63.40
2018-08-20T16:00:22.474Z,64.10
2018-08-20T16:03:25.619Z,64.00
2018-08-20T16:06:28.953Z,63.70
2018-08-20T16:09:32.069Z,64.00
2018-08-20T16:12:35.421Z,63.40
2018-08-20T16:15:38.596Z,63.50
2018-08-20T16:18:52.851Z,63.40
2018-08-20T16:21:56.698Z,63.00
2018-08-20T16:25:00.441Z,63.70
2018-08-20T16:28:03.953Z,62.50
2018-08-20T16:31:08.173Z,62.70
2018-08-20T16:34:11.805Z,62.90
2018-08-20T16:37:15.647Z,62.40
2018-08-20T16:40:19.273Z,63.20
2018-08-20T16:43:23.191Z,63.00
2018-08-20T16:46:27.232Z,63.40
2018-08-20T16:49:30.743Z,63.30
2018-08-20T16:52:34.561Z,63.60
2018-08-20T16:55:38.321Z,64.10
2018-08-20T16:58:41.917Z,63.90
2018-08-20T17:01:45.868Z,63.80
2018-08-20T17:04:49.200Z,64.10
2018-08-20T17:07:53.076Z,64.40
2018-08-20T17:10:56.739Z,63.90
2018-08-20T17:13:59.930Z,63.50
2018-08-20T17:17:03.445Z,63.70
2018-08-20T17:20:08.501Z,63.90
2018-08-20T17:23:19.606Z,64.10
2018-08-20T17:26:24.718Z,64.80
2018-08-20T17:29:28.044Z,65.50
2018-08-20T17:32:31.607Z,64.30
2018-08-20T17:35:39.556Z,64.60
2018-08-20T17:38:42.730Z,65.50
2018-08-20T17:41:45.893Z,64.90
2018-08-20T17:44:49.041Z,65.00
2018-08-20T17:47:52.180Z,66.10
2018-08-20T17:50:55.339Z,65.80
2018-08-20T17:53:59.079Z,65.60
2018-08-20T17:57:02.495Z,66.20
2018-08-20T18:00:22.307Z,66.30
2018-08-20T18:03:29.778Z,66.70
2018-08-20T18:06:50.055Z,66.70
2018-08-20T18:09:53.328Z,66.40
2018-08-20T18:12:56.675Z,67.00
2018-08-20T18:16:01.791Z,66.50
2018-08-20T18:19:05.032Z,65.80
2018-08-20T18:22:08.313Z,64.70
2018-08-20T18:25:11.562Z,63.30
2018-08-20T18:28:14.837Z,63.60
2018-08-20T18:31:22.938Z,62.90
2018-08-20T18:34:26.181Z,62.90
2018-08-20T18:37:31.186Z,61.70
2018-08-20T18:40:34.486Z,60.30
2018-08-20T18:43:37.916Z,60.80
2018-08-20T18:46:41.073Z,60.10
2018-08-20T18:49:52.350Z,60.00
2018-08-20T18:52:55.664Z,60.00
2018-08-20T18:56:05.300Z,59.70
2018-08-20T18:59:08.516Z,59.90
2018-08-20T19:02:21.311Z,60.20
2018-08-20T19:05:24.659Z,60.40
2018-08-20T19:08:27.827Z,60.30
2018-08-20T19:11:31.144Z,60.60
2018-08-20T19:14:34.377Z,62.30
2018-08-20T19:17:37.586Z,61.80
2018-08-20T19:20:41.920Z,61.60
2018-08-20T19:23:45.188Z,62.30
2018-08-20T19:26:49.556Z,62.40
2018-08-20T19:29:52.763Z,62.90
2018-08-20T19:32:56.001Z,63.60
2018-08-20T19:35:59.511Z,63.90
2018-08-20T19:39:02.911Z,64.30
2018-08-20T19:42:06.876Z,64.90
2018-08-20T19:45:12.120Z,64.20
2018-08-20T19:48:15.311Z,64.10
2018-08-20T19:51:18.633Z,64.20
2018-08-20T19:54:21.895Z,63.70
2018-08-20T19:57:25.095Z,64.20
2018-08-20T20:00:28.362Z,64.20
2018-08-20T20:03:32.833Z,64.10
2018-08-20T20:06:36.047Z,63.80
2018-08-20T20:09:39.476Z,63.70
2018-08-20T20:12:48.522Z,63.80
2018-08-20T20:15:52.272Z,64.30
2018-08-20T20:18:55.669Z,64.10
2018-08-20T20:21:59.680Z,64.80
2018-08-20T20:25:03.257Z,64.20
2018-08-20T20:28:09.640Z,63.70
2018-08-20T20:32:16.322Z,63.60
2018-08-20T20:35:19.991Z,63.70
2018-08-20T20:38:24.255Z,64.40
2018-08-20T20:41:28.608Z,65.40
2018-08-20T20:44:32.164Z,64.50
2018-08-20T20:47:35.936Z,64.60
2018-08-20T20:50:39.637Z,64.80
2018-08-20T20:53:44.439Z,64.60
2018-08-20T20:57:13.469Z,64.60
2018-08-20T21:00:17.174Z,64.50
2018-08-20T21:03:30.162Z,64.40
2018-08-20T21:06:58.175Z,64.80
2018-08-20T21:10:03.265Z,64.60
2018-08-20T21:13:07.133Z,64.50
2018-08-20T21:16:29.061Z,64.80
2018-08-20T21:19:58.547Z,64.80
2018-08-20T21:23:02.724Z,64.90
2018-08-20T21:26:07.207Z,64.70
2018-08-20T21:29:10.703Z,64.70
2018-08-20T21:32:14.140Z,64.50
2018-08-20T21:35:18.245Z,65.00
2018-08-20T21:38:22.217Z,64.80
2018-08-20T21:41:27.598Z,65.10
2018-08-20T21:44:33.115Z,65.00
2018-08-20T21:47:36.456Z,65.20
2018-08-20T21:50:39.860Z,65.30
2018-08-20T21:53:43.474Z,65.60
2018-08-20T21:56:51.934Z,65.10
2018-08-20T22:00:18.661Z,65.50
2018-08-20T22:03:22.348Z,65.40
2018-08-20T22:06:25.834Z,65.60
2018-08-20T22:09:29.269Z,65.60
2018-08-20T22:12:32.779Z,66.00
2018-08-20T22:15:36.359Z,65.50
2018-08-20T22:18:41.334Z,65.80
2018-08-20T22:21:44.832Z,65.80
2018-08-20T22:24:53.035Z,65.80
2018-08-20T22:27:56.624Z,65.70
2018-08-20T22:31:00.110Z,65.70
2018-08-20T22:34:08.496Z,65.80
2018-08-20T22:37:12.037Z,65.70
2018-08-20T22:40:17.623Z,65.90
2018-08-20T22:43:21.147Z,65.40
2018-08-20T22:46:25.273Z,65.00
2018-08-20T22:49:28.659Z,65.30
2018-08-20T22:52:32.122Z,65.50
2018-08-20T22:55:35.511Z,65.50
2018-08-20T22:58:39.011Z,66.30
2018-08-20T23:01:42.517Z,65.80
2018-08-20T23:04:50.424Z,65.90
2018-08-20T23:08:08.743Z,65.50
2018-08-20T23:11:12.200Z,65.70
2018-08-20T23:14:16.787Z,65.80
2018-08-20T23:17:25.865Z,65.70
2018-08-20T23:20:31.234Z,65.30
2018-08-20T23:23:38.703Z,65.50
2018-08-20T23:26:42.563Z,65.20
2018-08-20T23:29:45.981Z,65.40
2018-08-20T23:32:49.356Z,66.00
2018-08-20T23:35:52.881Z,65.60
2018-08-20T23:38:56.326Z,65.60
2018-08-20T23:41:59.716Z,65.50
2018-08-20T23:45:03.176Z,65.40
2018-08-20T23:48:06.723Z,65.30
2018-08-20T23:51:10.069Z,65.30
2018-08-20T23:54:13.953Z,65.00
2018-08-20T23:57:17.216Z,66.00
